WJA27 CYUL-BGSF
Flight info
| Callsign | WJA27 |
|---|---|
| Flight time | 3h 18m |
| Altitude | 35000 |
| Route | 4531N07341W DCT 4704N07248W 4837N07151W 5009N07051W 5140N06948W 5311N06839W 5442N06726W 5611N06607W/N0461F370 5739N06442W 5907N06310W/M077F370 6033N06129W 6158N05939W 6321N05739W 6443N05527W DCT 6602N05300W DCT KEFOP |
| Aircraft | B738/M-SDGIJ1LRWY/SB1 |
Departure
| Time | 2026-04-20 22:02 |
|---|---|
| Airport | Montreal / Pierre Elliott Trudeau International Airport (CYUL) |
Arrival
| Time | 2026-04-21 01:21 |
|---|---|
| Airport | Kangerlussuaq International Airport (BGSF) |
| Time | Latitude | Longitude | Altitude | Speed | Heading |
|---|---|---|---|---|---|
| 2026-04-20 21:48 | 45.45920 | -73.74998 | 107 ft | 0 kts | 180° |
| 2026-04-20 21:51 | 45.45925 | -73.74998 | 107 ft | 2 kts | 180° |
| 2026-04-20 21:52 | 45.45940 | -73.74998 | 108 ft | 2 kts | 179° |
| 2026-04-20 21:52 | 45.45952 | -73.74998 | 108 ft | 0 kts | 179° |
| 2026-04-20 21:52 | 45.45960 | -73.74998 | 108 ft | 2 kts | 172° |
| 2026-04-20 21:52 | 45.45977 | -73.75010 | 108 ft | 2 kts | 138° |
| 2026-04-20 21:53 | 45.45987 | -73.75027 | 108 ft | 2 kts | 115° |
| 2026-04-20 21:53 | 45.45988 | -73.75030 | 108 ft | 2 kts | 111° |
| 2026-04-20 21:53 | 45.45991 | -73.75043 | 108 ft | 1 kts | 97° |
| 2026-04-20 21:53 | 45.45991 | -73.75056 | 108 ft | 0 kts | 90° |
| 2026-04-20 21:54 | 45.45991 | -73.75057 | 108 ft | 0 kts | 90° |
| 2026-04-20 21:56 | 45.45991 | -73.75056 | 108 ft | 1 kts | 90° |
| 2026-04-20 21:57 | 45.45991 | -73.74938 | 108 ft | 16 kts | 93° |
| 2026-04-20 21:57 | 45.45955 | -73.74747 | 108 ft | 23 kts | 103° |
| 2026-04-20 21:57 | 45.45981 | -73.74509 | 108 ft | 26 kts | 63° |
| 2026-04-20 21:57 | 45.45970 | -73.74290 | 108 ft | 21 kts | 96° |
| 2026-04-20 21:58 | 45.46077 | -73.74129 | 108 ft | 26 kts | 45° |
| 2026-04-20 21:58 | 45.46225 | -73.73935 | 109 ft | 31 kts | 43° |
| 2026-04-20 21:58 | 45.46343 | -73.73782 | 109 ft | 35 kts | 42° |
| 2026-04-20 21:58 | 45.46611 | -73.73427 | 111 ft | 42 kts | 44° |
| 2026-04-20 21:59 | 45.46827 | -73.73141 | 113 ft | 42 kts | 43° |
| 2026-04-20 21:59 | 45.47045 | -73.72855 | 116 ft | 41 kts | 43° |
| 2026-04-20 21:59 | 45.47183 | -73.72675 | 118 ft | 40 kts | 43° |
| 2026-04-20 21:59 | 45.47451 | -73.72319 | 124 ft | 38 kts | 43° |
| 2026-04-20 22:00 | 45.47647 | -73.72065 | 128 ft | 38 kts | 42° |
| 2026-04-20 22:00 | 45.47810 | -73.71828 | 132 ft | 23 kts | 76° |
| 2026-04-20 22:00 | 45.47761 | -73.71709 | 133 ft | 10 kts | 138° |
| 2026-04-20 22:00 | 45.47713 | -73.71652 | 133 ft | 8 kts | 145° |
| 2026-04-20 22:01 | 45.47666 | -73.71652 | 133 ft | 6 kts | 210° |
| 2026-04-20 22:01 | 45.47634 | -73.71691 | 133 ft | 5 kts | 222° |
| 2026-04-20 22:01 | 45.47612 | -73.71720 | 132 ft | 3 kts | 223° |
| 2026-04-20 22:01 | 45.47591 | -73.71749 | 132 ft | 7 kts | 223° |
| 2026-04-20 22:02 | 45.47494 | -73.71877 | 130 ft | 51 kts | 223° |
| 2026-04-20 22:02 | 45.46867 | -73.72697 | 116 ft | 129 kts | 222° |
| 2026-04-20 22:02 | 45.46085 | -73.73692 | 250 ft | 161 kts | 224° |
| 2026-04-20 22:02 | 45.45215 | -73.74729 | 784 ft | 168 kts | 222° |
| 2026-04-20 22:03 | 45.44598 | -73.75399 | 1182 ft | 173 kts | 221° |
| 2026-04-20 22:03 | 45.43595 | -73.76605 | 1380 ft | 202 kts | 227° |
| 2026-04-20 22:03 | 45.42667 | -73.77956 | 2202 ft | 193 kts | 234° |
| 2026-04-20 22:03 | 45.41981 | -73.80365 | 2738 ft | 206 kts | 270° |
| 2026-04-20 22:04 | 45.42043 | -73.81741 | 2976 ft | 216 kts | 284° |
| 2026-04-20 22:04 | 45.43002 | -73.84312 | 3611 ft | 232 kts | 315° |
| 2026-04-20 22:04 | 45.44365 | -73.85590 | 4126 ft | 244 kts | 338° |
| 2026-04-20 22:04 | 45.46039 | -73.86008 | 4773 ft | 253 kts | 359° |
| 2026-04-20 22:05 | 45.47781 | -73.85491 | 5465 ft | 260 kts | 17° |
| 2026-04-20 22:05 | 45.49458 | -73.84488 | 6158 ft | 264 kts | 21° |
| 2026-04-20 22:05 | 45.50579 | -73.83753 | 6614 ft | 266 kts | 22° |
| 2026-04-20 22:05 | 45.52821 | -73.82268 | 7557 ft | 269 kts | 21° |
| 2026-04-20 22:06 | 45.54505 | -73.81165 | 8285 ft | 270 kts | 21° |
| 2026-04-20 22:06 | 45.56232 | -73.80046 | 8995 ft | 272 kts | 21° |
| 2026-04-20 22:06 | 45.57383 | -73.79304 | 9458 ft | 274 kts | 20° |
| 2026-04-20 22:06 | 45.59696 | -73.77814 | 10323 ft | 279 kts | 21° |
| 2026-04-20 22:07 | 45.61510 | -73.76648 | 10660 ft | 293 kts | 21° |
| 2026-04-20 22:07 | 45.63413 | -73.75423 | 10964 ft | 309 kts | 21° |
| 2026-04-20 22:07 | 45.64736 | -73.74571 | 11167 ft | 319 kts | 21° |
| 2026-04-20 22:07 | 45.67510 | -73.72781 | 11619 ft | 337 kts | 21° |
| 2026-04-20 22:08 | 45.69644 | -73.71397 | 12221 ft | 342 kts | 21° |
| 2026-04-20 22:08 | 45.71843 | -73.69965 | 12868 ft | 346 kts | 21° |
| 2026-04-20 22:08 | 45.73287 | -73.69026 | 13314 ft | 348 kts | 21° |
| 2026-04-20 22:08 | 45.76221 | -73.67114 | 14211 ft | 352 kts | 21° |
| 2026-04-20 22:09 | 45.77710 | -73.66145 | 14663 ft | 354 kts | 21° |
| 2026-04-20 22:09 | 45.79955 | -73.64684 | 15335 ft | 358 kts | 20° |
| 2026-04-20 22:09 | 45.82247 | -73.63192 | 16008 ft | 362 kts | 20° |
| 2026-04-20 22:09 | 45.85301 | -73.61201 | 16812 ft | 368 kts | 21° |
| 2026-04-20 22:10 | 45.86865 | -73.60179 | 17212 ft | 371 kts | 20° |
| 2026-04-20 22:10 | 45.90010 | -73.58124 | 18024 ft | 375 kts | 21° |
| 2026-04-20 22:10 | 45.92383 | -73.56569 | 18609 ft | 379 kts | 20° |
| 2026-04-20 22:10 | 45.94782 | -73.54996 | 19158 ft | 383 kts | 20° |
| 2026-04-20 22:11 | 45.96411 | -73.53929 | 19570 ft | 385 kts | 21° |
| 2026-04-20 22:11 | 45.98871 | -73.52319 | 20089 ft | 389 kts | 20° |
| 2026-04-20 22:11 | 46.02160 | -73.50165 | 20833 ft | 394 kts | 20° |
| 2026-04-20 22:11 | 46.04636 | -73.48540 | 21413 ft | 396 kts | 21° |
| 2026-04-20 22:12 | 46.06325 | -73.47429 | 21726 ft | 399 kts | 21° |
| 2026-04-20 22:12 | 46.09681 | -73.45218 | 22418 ft | 403 kts | 21° |
| 2026-04-20 22:12 | 46.11394 | -73.44089 | 22741 ft | 406 kts | 21° |
| 2026-04-20 22:12 | 46.14866 | -73.41798 | 23389 ft | 410 kts | 21° |
| 2026-04-20 22:13 | 46.16594 | -73.40658 | 23665 ft | 413 kts | 21° |
| 2026-04-20 22:13 | 46.20087 | -73.38348 | 24301 ft | 417 kts | 21° |
| 2026-04-20 22:13 | 46.21850 | -73.37178 | 24607 ft | 419 kts | 21° |
| 2026-04-20 22:13 | 46.25398 | -73.34820 | 25192 ft | 422 kts | 22° |
| 2026-04-20 22:14 | 46.27205 | -73.33617 | 25439 ft | 425 kts | 22° |
| 2026-04-20 22:14 | 46.29880 | -73.31834 | 25888 ft | 427 kts | 22° |
| 2026-04-20 22:14 | 46.32593 | -73.30027 | 26294 ft | 430 kts | 22° |
| 2026-04-20 22:14 | 46.35321 | -73.28209 | 26680 ft | 432 kts | 22° |
| 2026-04-20 22:15 | 46.39000 | -73.25754 | 27172 ft | 437 kts | 22° |
| 2026-04-20 22:15 | 46.40836 | -73.24530 | 27407 ft | 439 kts | 22° |
| 2026-04-20 22:15 | 46.43615 | -73.22675 | 27723 ft | 442 kts | 22° |
| 2026-04-20 22:15 | 46.46394 | -73.20818 | 28077 ft | 443 kts | 22° |
| 2026-04-20 22:16 | 46.49157 | -73.18969 | 28527 ft | 441 kts | 22° |
| 2026-04-20 22:16 | 46.52862 | -73.16486 | 29036 ft | 440 kts | 22° |
| 2026-04-20 22:16 | 46.54724 | -73.15236 | 29286 ft | 440 kts | 22° |
| 2026-04-20 22:16 | 46.57525 | -73.13356 | 29640 ft | 440 kts | 22° |
| 2026-04-20 22:17 | 46.61196 | -73.10887 | 30126 ft | 439 kts | 22° |
| 2026-04-20 22:17 | 46.63982 | -73.09013 | 30441 ft | 439 kts | 22° |
| 2026-04-20 22:17 | 46.65840 | -73.07761 | 30640 ft | 439 kts | 22° |
| 2026-04-20 22:17 | 46.69561 | -73.05253 | 30961 ft | 440 kts | 22° |
| 2026-04-20 22:18 | 46.71431 | -73.03991 | 31114 ft | 441 kts | 22° |
| 2026-04-20 22:18 | 46.74207 | -73.02116 | 31349 ft | 441 kts | 22° |
| 2026-04-20 22:18 | 46.76973 | -73.00245 | 31581 ft | 442 kts | 22° |
| 2026-04-20 22:18 | 46.80701 | -72.97720 | 31887 ft | 444 kts | 22° |
| 2026-04-20 22:19 | 46.82573 | -72.96452 | 32035 ft | 444 kts | 22° |
| 2026-04-20 22:19 | 46.85370 | -72.94553 | 32254 ft | 446 kts | 22° |
| 2026-04-20 22:19 | 46.88170 | -72.92650 | 32479 ft | 446 kts | 22° |
| 2026-04-20 22:19 | 46.91886 | -72.90118 | 32755 ft | 447 kts | 22° |
| 2026-04-20 22:20 | 46.93769 | -72.88835 | 32887 ft | 448 kts | 22° |
| 2026-04-20 22:20 | 46.97543 | -72.86262 | 33167 ft | 449 kts | 22° |
| 2026-04-20 22:20 | 47.00400 | -72.84312 | 33369 ft | 450 kts | 22° |
| 2026-04-20 22:20 | 47.03239 | -72.82370 | 33665 ft | 449 kts | 22° |
| 2026-04-20 22:21 | 47.06077 | -72.80428 | 33916 ft | 449 kts | 22° |
| 2026-04-20 22:21 | 47.08876 | -72.78565 | 34184 ft | 448 kts | 21° |
| 2026-04-20 22:21 | 47.10793 | -72.77365 | 34329 ft | 448 kts | 20° |
| 2026-04-20 22:21 | 47.14663 | -72.75057 | 34625 ft | 448 kts | 19° |
| 2026-04-20 22:22 | 47.17551 | -72.73375 | 34892 ft | 447 kts | 19° |
| 2026-04-20 22:22 | 47.20448 | -72.71692 | 35071 ft | 448 kts | 19° |
| 2026-04-20 22:22 | 47.22375 | -72.70569 | 35169 ft | 449 kts | 19° |
| 2026-04-20 22:23 | 47.29184 | -72.66562 | 35191 ft | 448 kts | 19° |
| 2026-04-20 22:23 | 47.34948 | -72.63129 | 35189 ft | 448 kts | 19° |
| 2026-04-20 22:24 | 47.40745 | -72.59654 | 35189 ft | 450 kts | 19° |
| 2026-04-20 22:24 | 47.45578 | -72.56744 | 35191 ft | 449 kts | 19° |
| 2026-04-20 22:25 | 47.52279 | -72.52698 | 35189 ft | 449 kts | 20° |
| 2026-04-20 22:25 | 47.58063 | -72.49197 | 35192 ft | 450 kts | 20° |
| 2026-04-20 22:26 | 47.62857 | -72.46289 | 35188 ft | 449 kts | 19° |
| 2026-04-20 22:26 | 47.68622 | -72.42784 | 35193 ft | 449 kts | 20° |
| 2026-04-20 22:27 | 47.77265 | -72.37513 | 35189 ft | 450 kts | 20° |
| 2026-04-20 22:27 | 47.84030 | -72.33375 | 35179 ft | 449 kts | 20° |
| 2026-04-20 22:28 | 47.88861 | -72.30412 | 35173 ft | 450 kts | 20° |
| 2026-04-20 22:28 | 47.94617 | -72.26873 | 35163 ft | 449 kts | 20° |
| 2026-04-20 22:29 | 48.01374 | -72.22709 | 35167 ft | 450 kts | 20° |
| 2026-04-20 22:29 | 48.06163 | -72.19750 | 35173 ft | 449 kts | 20° |
| 2026-04-20 22:30 | 48.12896 | -72.15581 | 35184 ft | 449 kts | 20° |
| 2026-04-20 22:30 | 48.18666 | -72.12000 | 35196 ft | 451 kts | 20° |
| 2026-04-20 22:31 | 48.23512 | -72.08984 | 35197 ft | 450 kts | 21° |
| 2026-04-20 22:31 | 48.30237 | -72.04788 | 35207 ft | 450 kts | 20° |
| 2026-04-20 22:32 | 48.35007 | -72.01804 | 35211 ft | 450 kts | 21° |
| 2026-04-20 22:32 | 48.40777 | -71.98188 | 35222 ft | 450 kts | 20° |
| 2026-04-20 22:33 | 48.46559 | -71.94556 | 35224 ft | 450 kts | 20° |
| 2026-04-20 22:33 | 48.52306 | -71.90936 | 35231 ft | 451 kts | 20° |
| 2026-04-20 22:34 | 48.59030 | -71.86690 | 35228 ft | 450 kts | 20° |
| 2026-04-20 22:34 | 48.63846 | -71.83643 | 35226 ft | 451 kts | 20° |
| 2026-04-20 22:35 | 48.69609 | -71.79999 | 35222 ft | 451 kts | 20° |
| 2026-04-20 22:35 | 48.76345 | -71.75736 | 35221 ft | 451 kts | 20° |
| 2026-04-20 22:36 | 48.81158 | -71.72681 | 35214 ft | 450 kts | 20° |
| 2026-04-20 22:36 | 48.86924 | -71.69011 | 35208 ft | 451 kts | 20° |
| 2026-04-20 22:37 | 48.92696 | -71.65327 | 35201 ft | 452 kts | 20° |
| 2026-04-20 22:37 | 48.99404 | -71.61035 | 35192 ft | 451 kts | 20° |
| 2026-04-20 22:38 | 49.04231 | -71.57938 | 35180 ft | 451 kts | 21° |
| 2026-04-20 22:38 | 49.09984 | -71.54239 | 35161 ft | 451 kts | 21° |
| 2026-04-20 22:39 | 49.15789 | -71.50497 | 35131 ft | 451 kts | 21° |
| 2026-04-20 22:39 | 49.21567 | -71.46762 | 35112 ft | 452 kts | 21° |
| 2026-04-20 22:40 | 49.27346 | -71.43018 | 35109 ft | 452 kts | 21° |
| 2026-04-20 22:40 | 49.33130 | -71.39259 | 35128 ft | 452 kts | 21° |
| 2026-04-20 22:41 | 49.38921 | -71.35487 | 35140 ft | 452 kts | 21° |
| 2026-04-20 22:41 | 49.45724 | -71.31045 | 35157 ft | 452 kts | 21° |
| 2026-04-20 22:42 | 49.50535 | -71.27895 | 35163 ft | 451 kts | 21° |
| 2026-04-20 22:42 | 49.57270 | -71.23474 | 35164 ft | 452 kts | 21° |
| 2026-04-20 22:43 | 49.63016 | -71.19692 | 35165 ft | 452 kts | 22° |
| 2026-04-20 22:43 | 49.67820 | -71.16521 | 35168 ft | 452 kts | 22° |
| 2026-04-20 22:44 | 49.73588 | -71.12705 | 35165 ft | 453 kts | 22° |
| 2026-04-20 22:44 | 49.79351 | -71.08884 | 35167 ft | 453 kts | 22° |
| 2026-04-20 22:45 | 49.85114 | -71.05052 | 35167 ft | 452 kts | 21° |
| 2026-04-20 22:45 | 49.90894 | -71.01200 | 35162 ft | 452 kts | 22° |
| 2026-04-20 22:46 | 49.96645 | -70.97356 | 35158 ft | 452 kts | 22° |
| 2026-04-20 22:46 | 50.02408 | -70.93496 | 35156 ft | 453 kts | 22° |
| 2026-04-20 22:47 | 50.08207 | -70.89600 | 35149 ft | 453 kts | 22° |
| 2026-04-20 22:47 | 50.13966 | -70.85719 | 35137 ft | 453 kts | 22° |
| 2026-04-20 22:48 | 50.19784 | -70.81806 | 35127 ft | 454 kts | 22° |
| 2026-04-20 22:48 | 50.25554 | -70.77940 | 35111 ft | 454 kts | 22° |
| 2026-04-20 22:49 | 50.31329 | -70.74064 | 35100 ft | 454 kts | 21° |
| 2026-04-20 22:49 | 50.38079 | -70.69518 | 35085 ft | 454 kts | 21° |
| 2026-04-20 22:50 | 50.42895 | -70.66264 | 35080 ft | 453 kts | 22° |
| 2026-04-20 22:50 | 50.48666 | -70.62354 | 35079 ft | 453 kts | 22° |
| 2026-04-20 22:51 | 50.54431 | -70.58437 | 35082 ft | 454 kts | 22° |
| 2026-04-20 22:51 | 50.61222 | -70.53810 | 35081 ft | 455 kts | 22° |
| 2026-04-20 22:52 | 50.66041 | -70.50516 | 35086 ft | 454 kts | 22° |
| 2026-04-20 22:52 | 50.71797 | -70.46572 | 35080 ft | 455 kts | 22° |
| 2026-04-20 22:53 | 50.78587 | -70.41908 | 35072 ft | 456 kts | 22° |
| 2026-04-20 22:53 | 50.83424 | -70.38575 | 35069 ft | 455 kts | 22° |
| 2026-04-20 22:54 | 50.89222 | -70.34571 | 35063 ft | 455 kts | 22° |
| 2026-04-20 22:54 | 50.95057 | -70.30531 | 35056 ft | 456 kts | 23° |
| 2026-04-20 22:55 | 51.00818 | -70.26530 | 35061 ft | 455 kts | 23° |
| 2026-04-20 22:55 | 51.06617 | -70.22494 | 35056 ft | 457 kts | 23° |
| 2026-04-20 22:56 | 51.12427 | -70.18438 | 35048 ft | 456 kts | 23° |
| 2026-04-20 22:56 | 51.18276 | -70.14343 | 35041 ft | 456 kts | 23° |
| 2026-04-20 22:57 | 51.20696 | -70.12646 | 35038 ft | 457 kts | 23° |
| 2026-04-20 22:57 | 51.26502 | -70.08565 | 35029 ft | 458 kts | 23° |
| 2026-04-20 22:58 | 51.32330 | -70.04459 | 35029 ft | 457 kts | 23° |
| 2026-04-20 22:58 | 51.38108 | -70.00375 | 35028 ft | 457 kts | 23° |
| 2026-04-20 22:59 | 51.43919 | -69.96257 | 35034 ft | 456 kts | 23° |
| 2026-04-20 22:59 | 51.50688 | -69.91445 | 35044 ft | 458 kts | 23° |
| 2026-04-20 23:00 | 51.55542 | -69.87985 | 35046 ft | 457 kts | 23° |
| 2026-04-20 23:00 | 51.61356 | -69.83830 | 35047 ft | 460 kts | 23° |
| 2026-04-20 23:01 | 51.67153 | -69.79673 | 35039 ft | 459 kts | 23° |
| 2026-04-20 23:01 | 51.73972 | -69.74715 | 35027 ft | 459 kts | 24° |
| 2026-04-20 23:02 | 51.78842 | -69.71134 | 35017 ft | 460 kts | 24° |
| 2026-04-20 23:02 | 51.84660 | -69.66844 | 35022 ft | 460 kts | 24° |
| 2026-04-20 23:03 | 51.90472 | -69.62550 | 35021 ft | 462 kts | 24° |
| 2026-04-20 23:03 | 51.96300 | -69.58234 | 35012 ft | 459 kts | 24° |
| 2026-04-20 23:04 | 52.02097 | -69.53932 | 35011 ft | 461 kts | 24° |
| 2026-04-20 23:04 | 52.07897 | -69.49617 | 35011 ft | 462 kts | 24° |
| 2026-04-20 23:05 | 52.13721 | -69.45273 | 35004 ft | 460 kts | 24° |
| 2026-04-20 23:05 | 52.19531 | -69.40926 | 35002 ft | 461 kts | 24° |
| 2026-04-20 23:06 | 52.25344 | -69.36565 | 35002 ft | 461 kts | 24° |
| 2026-04-20 23:06 | 52.31158 | -69.32188 | 34992 ft | 461 kts | 25° |
| 2026-04-20 23:07 | 52.36980 | -69.27794 | 34991 ft | 462 kts | 25° |
| 2026-04-20 23:07 | 52.42800 | -69.23388 | 34986 ft | 463 kts | 25° |
| 2026-04-20 23:08 | 52.48663 | -69.18937 | 34986 ft | 463 kts | 25° |
| 2026-04-20 23:08 | 52.54481 | -69.14507 | 34980 ft | 464 kts | 25° |
| 2026-04-20 23:09 | 52.60313 | -69.10055 | 34978 ft | 465 kts | 25° |
| 2026-04-20 23:09 | 52.67147 | -69.04819 | 34973 ft | 464 kts | 25° |
| 2026-04-20 23:10 | 52.72012 | -69.01081 | 34970 ft | 464 kts | 25° |
| 2026-04-20 23:10 | 52.77837 | -68.96594 | 34965 ft | 464 kts | 25° |
| 2026-04-20 23:11 | 52.83687 | -68.92073 | 34960 ft | 464 kts | 25° |
| 2026-04-20 23:11 | 52.89590 | -68.87498 | 34957 ft | 464 kts | 25° |
| 2026-04-20 23:12 | 52.95428 | -68.82959 | 34955 ft | 465 kts | 25° |
| 2026-04-20 23:12 | 53.01246 | -68.78423 | 34943 ft | 466 kts | 25° |
| 2026-04-20 23:13 | 53.07103 | -68.73843 | 34950 ft | 466 kts | 25° |
| 2026-04-20 23:13 | 53.12875 | -68.69318 | 34947 ft | 467 kts | 25° |
| 2026-04-20 23:14 | 53.18863 | -68.64607 | 34954 ft | 468 kts | 25° |
| 2026-04-20 23:14 | 53.24750 | -68.60024 | 34960 ft | 469 kts | 25° |
| 2026-04-20 23:15 | 53.30649 | -68.55469 | 34958 ft | 468 kts | 25° |
| 2026-04-20 23:15 | 53.36510 | -68.50934 | 34951 ft | 469 kts | 25° |
| 2026-04-20 23:16 | 53.42421 | -68.46338 | 34948 ft | 470 kts | 25° |
| 2026-04-20 23:16 | 53.48325 | -68.41728 | 34949 ft | 469 kts | 25° |
| 2026-04-20 23:17 | 53.54206 | -68.37119 | 34942 ft | 469 kts | 25° |
| 2026-04-20 23:17 | 53.60149 | -68.32447 | 34942 ft | 470 kts | 26° |
| 2026-04-20 23:18 | 53.66070 | -68.27777 | 34932 ft | 470 kts | 26° |
| 2026-04-20 23:18 | 53.71968 | -68.23111 | 34926 ft | 471 kts | 26° |
| 2026-04-20 23:19 | 53.77936 | -68.18374 | 34923 ft | 470 kts | 26° |
| 2026-04-20 23:19 | 53.83830 | -68.13680 | 34921 ft | 470 kts | 26° |
| 2026-04-20 23:20 | 53.89770 | -68.08935 | 34914 ft | 471 kts | 26° |
| 2026-04-20 23:20 | 53.95705 | -68.04180 | 34913 ft | 473 kts | 26° |
| 2026-04-20 23:21 | 54.01635 | -67.99416 | 34914 ft | 473 kts | 26° |
| 2026-04-20 23:21 | 54.07584 | -67.94620 | 34909 ft | 471 kts | 26° |
| 2026-04-20 23:22 | 54.13540 | -67.89802 | 34903 ft | 473 kts | 26° |
| 2026-04-20 23:22 | 54.19464 | -67.84994 | 34901 ft | 472 kts | 26° |
| 2026-04-20 23:23 | 54.25415 | -67.80148 | 34893 ft | 473 kts | 26° |
| 2026-04-20 23:23 | 54.31331 | -67.75317 | 34896 ft | 472 kts | 26° |
| 2026-04-20 23:24 | 54.37279 | -67.70445 | 34891 ft | 472 kts | 26° |
| 2026-04-20 23:24 | 54.43267 | -67.65523 | 34888 ft | 475 kts | 26° |
| 2026-04-20 23:25 | 54.49193 | -67.60638 | 34891 ft | 474 kts | 26° |
| 2026-04-20 23:25 | 54.55095 | -67.55757 | 34882 ft | 474 kts | 26° |
| 2026-04-20 23:26 | 54.61025 | -67.50836 | 34876 ft | 475 kts | 26° |
| 2026-04-20 23:26 | 54.66946 | -67.45907 | 34876 ft | 474 kts | 26° |
| 2026-04-20 23:27 | 54.72883 | -67.40936 | 34880 ft | 474 kts | 27° |
| 2026-04-20 23:27 | 54.78765 | -67.35922 | 34877 ft | 473 kts | 27° |
| 2026-04-20 23:28 | 54.84670 | -67.30847 | 34866 ft | 474 kts | 28° |
| 2026-04-20 23:28 | 54.90561 | -67.25771 | 34866 ft | 474 kts | 28° |
| 2026-04-20 23:29 | 54.96421 | -67.20712 | 34855 ft | 475 kts | 28° |
| 2026-04-20 23:29 | 55.02316 | -67.15610 | 34861 ft | 475 kts | 28° |
| 2026-04-20 23:30 | 55.08232 | -67.10474 | 34866 ft | 474 kts | 28° |
| 2026-04-20 23:30 | 55.14143 | -67.05325 | 34865 ft | 474 kts | 28° |
| 2026-04-20 23:31 | 55.20058 | -67.00156 | 34867 ft | 475 kts | 28° |
| 2026-04-20 23:31 | 55.25922 | -66.95016 | 34864 ft | 476 kts | 28° |
| 2026-04-20 23:32 | 55.31815 | -66.89832 | 34862 ft | 475 kts | 28° |
| 2026-04-20 23:32 | 55.37729 | -66.84612 | 34864 ft | 477 kts | 28° |
| 2026-04-20 23:33 | 55.43677 | -66.79347 | 34865 ft | 475 kts | 28° |
| 2026-04-20 23:33 | 55.49605 | -66.74081 | 34882 ft | 476 kts | 28° |
| 2026-04-20 23:34 | 55.55540 | -66.68790 | 34873 ft | 477 kts | 28° |
| 2026-04-20 23:34 | 55.61450 | -66.63502 | 34874 ft | 477 kts | 28° |
| 2026-04-20 23:35 | 55.70301 | -66.55551 | 34863 ft | 477 kts | 28° |
| 2026-04-20 23:36 | 55.76208 | -66.50223 | 34864 ft | 476 kts | 28° |
| 2026-04-20 23:36 | 55.82079 | -66.44911 | 34874 ft | 477 kts | 28° |
| 2026-04-20 23:37 | 55.87955 | -66.39573 | 34869 ft | 476 kts | 29° |
| 2026-04-20 23:37 | 55.93835 | -66.34214 | 34875 ft | 477 kts | 30° |
| 2026-04-20 23:38 | 55.99726 | -66.28826 | 34875 ft | 477 kts | 30° |
| 2026-04-20 23:38 | 56.05609 | -66.23425 | 34872 ft | 478 kts | 30° |
| 2026-04-20 23:39 | 56.11527 | -66.17978 | 34871 ft | 477 kts | 30° |
| 2026-04-20 23:39 | 56.17451 | -66.12505 | 34866 ft | 479 kts | 30° |
| 2026-04-20 23:40 | 56.23384 | -66.07011 | 34870 ft | 479 kts | 30° |
| 2026-04-20 23:40 | 56.29286 | -66.01534 | 34870 ft | 479 kts | 30° |
| 2026-04-20 23:41 | 56.35162 | -65.96064 | 34871 ft | 480 kts | 30° |
| 2026-04-20 23:41 | 56.41090 | -65.90525 | 34865 ft | 478 kts | 30° |
| 2026-04-20 23:42 | 56.46987 | -65.84991 | 34861 ft | 481 kts | 30° |
| 2026-04-20 23:42 | 56.52938 | -65.79388 | 34858 ft | 479 kts | 30° |
| 2026-04-20 23:43 | 56.58849 | -65.73802 | 34857 ft | 482 kts | 30° |
| 2026-04-20 23:43 | 56.64789 | -65.68172 | 34859 ft | 480 kts | 30° |
| 2026-04-20 23:44 | 56.70714 | -65.62535 | 34862 ft | 481 kts | 30° |
| 2026-04-20 23:44 | 56.76668 | -65.56849 | 34861 ft | 482 kts | 30° |
| 2026-04-20 23:45 | 56.82613 | -65.51151 | 34860 ft | 483 kts | 31° |
| 2026-04-20 23:45 | 56.88543 | -65.45450 | 34859 ft | 483 kts | 30° |
| 2026-04-20 23:46 | 56.94494 | -65.39706 | 34872 ft | 483 kts | 30° |
| 2026-04-20 23:46 | 57.00467 | -65.33916 | 34885 ft | 483 kts | 31° |
| 2026-04-20 23:47 | 57.06443 | -65.28105 | 34900 ft | 483 kts | 32° |
| 2026-04-20 23:47 | 57.12392 | -65.22298 | 34902 ft | 485 kts | 31° |
| 2026-04-20 23:48 | 57.18356 | -65.16457 | 34889 ft | 485 kts | 32° |
| 2026-04-20 23:48 | 57.24326 | -65.10587 | 34873 ft | 485 kts | 32° |
| 2026-04-20 23:49 | 57.30229 | -65.04765 | 34845 ft | 486 kts | 32° |
| 2026-04-20 23:49 | 57.36172 | -64.98884 | 34799 ft | 486 kts | 32° |
| 2026-04-20 23:50 | 57.42110 | -64.92982 | 34776 ft | 487 kts | 32° |
| 2026-04-20 23:50 | 57.48067 | -64.87038 | 34758 ft | 489 kts | 32° |
| 2026-04-20 23:51 | 57.54036 | -64.81063 | 34753 ft | 489 kts | 32° |
| 2026-04-20 23:51 | 57.59989 | -64.75076 | 34752 ft | 490 kts | 32° |
| 2026-04-20 23:52 | 57.65962 | -64.69055 | 34762 ft | 489 kts | 32° |
| 2026-04-20 23:52 | 57.71951 | -64.63042 | 34768 ft | 491 kts | 32° |
| 2026-04-20 23:53 | 57.77951 | -64.57034 | 34768 ft | 489 kts | 32° |
| 2026-04-20 23:53 | 57.83914 | -64.51041 | 34760 ft | 491 kts | 32° |
| 2026-04-20 23:54 | 57.89929 | -64.44965 | 34759 ft | 493 kts | 32° |
| 2026-04-20 23:54 | 57.95923 | -64.38890 | 34747 ft | 493 kts | 32° |
| 2026-04-20 23:55 | 58.02005 | -64.32697 | 34735 ft | 493 kts | 33° |
| 2026-04-20 23:55 | 58.08099 | -64.26468 | 34725 ft | 493 kts | 33° |
| 2026-04-20 23:56 | 58.14155 | -64.20248 | 34719 ft | 494 kts | 33° |
| 2026-04-20 23:56 | 58.20195 | -64.14021 | 34709 ft | 494 kts | 33° |
| 2026-04-20 23:57 | 58.26210 | -64.07800 | 34699 ft | 495 kts | 33° |
| 2026-04-20 23:57 | 58.32270 | -64.01505 | 34707 ft | 495 kts | 34° |
| 2026-04-20 23:58 | 58.38255 | -63.95258 | 34720 ft | 496 kts | 33° |
| 2026-04-20 23:58 | 58.44306 | -63.88925 | 34713 ft | 497 kts | 33° |
| 2026-04-20 23:59 | 58.50296 | -63.82635 | 34707 ft | 496 kts | 33° |
| 2026-04-20 23:59 | 58.56361 | -63.76237 | 34712 ft | 499 kts | 34° |
| 2026-04-21 00:00 | 58.62412 | -63.69832 | 34725 ft | 498 kts | 34° |
| 2026-04-21 00:00 | 58.68435 | -63.63431 | 34737 ft | 498 kts | 33° |
| 2026-04-21 00:01 | 58.74529 | -63.56919 | 34724 ft | 502 kts | 34° |
| 2026-04-21 00:01 | 58.80610 | -63.50397 | 34712 ft | 502 kts | 34° |
| 2026-04-21 00:02 | 58.86738 | -63.43802 | 34738 ft | 500 kts | 34° |
| 2026-04-21 00:02 | 58.92801 | -63.37245 | 34786 ft | 502 kts | 34° |
| 2026-04-21 00:03 | 58.98924 | -63.30606 | 34818 ft | 505 kts | 36° |
| 2026-04-21 00:03 | 59.05070 | -63.23908 | 34823 ft | 504 kts | 35° |
| 2026-04-21 00:04 | 59.11189 | -63.17213 | 34853 ft | 506 kts | 35° |
| 2026-04-21 00:04 | 59.17369 | -63.10359 | 34879 ft | 509 kts | 36° |
| 2026-04-21 00:05 | 59.23556 | -63.03402 | 34887 ft | 506 kts | 36° |
| 2026-04-21 00:05 | 59.29756 | -62.96395 | 34891 ft | 506 kts | 37° |
| 2026-04-21 00:06 | 59.35878 | -62.89439 | 34890 ft | 507 kts | 36° |
| 2026-04-21 00:06 | 59.42013 | -62.82437 | 34893 ft | 513 kts | 37° |
| 2026-04-21 00:07 | 59.48112 | -62.75473 | 34894 ft | 505 kts | 37° |
| 2026-04-21 00:07 | 59.54194 | -62.68496 | 34887 ft | 508 kts | 37° |
| 2026-04-21 00:08 | 59.60329 | -62.61433 | 34873 ft | 508 kts | 37° |
| 2026-04-21 00:08 | 59.66363 | -62.54455 | 34879 ft | 508 kts | 38° |
| 2026-04-21 00:09 | 59.72514 | -62.47290 | 34874 ft | 511 kts | 37° |
| 2026-04-21 00:09 | 59.79692 | -62.38908 | 34863 ft | 512 kts | 38° |
| 2026-04-21 00:10 | 59.84793 | -62.32937 | 34873 ft | 511 kts | 39° |
| 2026-04-21 00:10 | 59.90894 | -62.25765 | 34859 ft | 512 kts | 40° |
| 2026-04-21 00:11 | 59.96983 | -62.18572 | 34860 ft | 506 kts | 40° |
| 2026-04-21 00:11 | 60.03074 | -62.11322 | 34854 ft | 514 kts | 40° |
| 2026-04-21 00:12 | 60.09187 | -62.04018 | 34850 ft | 514 kts | 39° |
| 2026-04-21 00:12 | 60.15376 | -61.96594 | 34846 ft | 516 kts | 40° |
| 2026-04-21 00:13 | 60.21505 | -61.89238 | 34845 ft | 514 kts | 40° |
| 2026-04-21 00:13 | 60.27679 | -61.81778 | 34843 ft | 517 kts | 40° |
| 2026-04-21 00:14 | 60.33770 | -61.74405 | 34832 ft | 510 kts | 40° |
| 2026-04-21 00:14 | 60.39806 | -61.67051 | 34837 ft | 511 kts | 40° |
| 2026-04-21 00:15 | 60.45904 | -61.59569 | 34830 ft | 512 kts | 40° |
| 2026-04-21 00:15 | 60.51997 | -61.52069 | 34833 ft | 513 kts | 40° |
| 2026-04-21 00:16 | 60.58048 | -61.44597 | 34819 ft | 512 kts | 40° |
| 2026-04-21 00:16 | 60.64178 | -61.37031 | 34823 ft | 513 kts | 40° |
| 2026-04-21 00:17 | 60.70285 | -61.29480 | 34822 ft | 513 kts | 41° |
| 2026-04-21 00:17 | 60.76339 | -61.21971 | 34815 ft | 513 kts | 41° |
| 2026-04-21 00:18 | 60.82429 | -61.14373 | 34810 ft | 513 kts | 41° |
| 2026-04-21 00:18 | 60.88502 | -61.06752 | 34811 ft | 514 kts | 42° |
| 2026-04-21 00:19 | 60.94586 | -60.99083 | 34810 ft | 515 kts | 42° |
| 2026-04-21 00:19 | 61.00639 | -60.91431 | 34809 ft | 512 kts | 41° |
| 2026-04-21 00:20 | 61.06718 | -60.83695 | 34803 ft | 514 kts | 41° |
| 2026-04-21 00:20 | 61.12834 | -60.75863 | 34802 ft | 516 kts | 42° |
| 2026-04-21 00:21 | 61.18848 | -60.68161 | 34816 ft | 507 kts | 42° |
| 2026-04-21 00:21 | 61.24836 | -60.60452 | 34761 ft | 508 kts | 41° |
| 2026-04-21 00:22 | 61.30809 | -60.52696 | 34904 ft | 515 kts | 41° |
| 2026-04-21 00:22 | 61.33850 | -60.48735 | 34778 ft | 512 kts | 41° |
| 2026-04-21 00:22 | 61.36876 | -60.44787 | 34785 ft | 515 kts | 41° |
| 2026-04-21 00:23 | 61.42933 | -60.36873 | 34807 ft | 513 kts | 40° |
| 2026-04-21 00:23 | 61.48975 | -60.28960 | 34795 ft | 509 kts | 43° |
| 2026-04-21 00:24 | 61.54928 | -60.21133 | 34801 ft | 504 kts | 42° |
| 2026-04-21 00:24 | 61.60837 | -60.13290 | 34782 ft | 510 kts | 42° |
| 2026-04-21 00:25 | 61.66821 | -60.05298 | 34766 ft | 512 kts | 43° |
| 2026-04-21 00:25 | 61.72814 | -59.97293 | 34776 ft | 508 kts | 42° |
| 2026-04-21 00:26 | 61.78777 | -59.89283 | 34777 ft | 512 kts | 41° |
| 2026-04-21 00:26 | 61.84726 | -59.81257 | 34764 ft | 507 kts | 42° |
| 2026-04-21 00:27 | 61.90684 | -59.73174 | 34776 ft | 511 kts | 41° |
| 2026-04-21 00:27 | 61.96661 | -59.65034 | 34767 ft | 507 kts | 42° |
| 2026-04-21 00:28 | 62.02626 | -59.56872 | 34760 ft | 508 kts | 42° |
| 2026-04-21 00:28 | 62.08571 | -59.48701 | 34769 ft | 510 kts | 41° |
| 2026-04-21 00:29 | 62.14532 | -59.40463 | 34759 ft | 508 kts | 41° |
| 2026-04-21 00:29 | 62.20475 | -59.32209 | 34760 ft | 507 kts | 43° |
| 2026-04-21 00:30 | 62.26346 | -59.24021 | 34748 ft | 506 kts | 43° |
| 2026-04-21 00:30 | 62.32206 | -59.15805 | 34748 ft | 504 kts | 43° |
| 2026-04-21 00:31 | 62.38091 | -59.07489 | 34747 ft | 509 kts | 43° |
| 2026-04-21 00:31 | 62.43982 | -58.99141 | 34733 ft | 507 kts | 42° |
| 2026-04-21 00:32 | 62.49862 | -58.90778 | 34735 ft | 508 kts | 42° |
| 2026-04-21 00:32 | 62.55740 | -58.82380 | 34740 ft | 506 kts | 42° |
| 2026-04-21 00:33 | 62.61665 | -58.73875 | 34729 ft | 507 kts | 43° |
| 2026-04-21 00:33 | 62.67557 | -58.65375 | 34743 ft | 510 kts | 41° |
| 2026-04-21 00:34 | 62.73394 | -58.56914 | 34739 ft | 507 kts | 42° |
| 2026-04-21 00:34 | 62.79265 | -58.48350 | 34731 ft | 508 kts | 42° |
| 2026-04-21 00:35 | 62.85130 | -58.39766 | 34740 ft | 507 kts | 42° |
| 2026-04-21 00:35 | 62.90970 | -58.31179 | 34733 ft | 507 kts | 43° |
| 2026-04-21 00:36 | 62.96835 | -58.22513 | 34723 ft | 507 kts | 42° |
| 2026-04-21 00:36 | 63.02663 | -58.13845 | 34706 ft | 507 kts | 42° |
| 2026-04-21 00:37 | 63.08493 | -58.05145 | 34704 ft | 504 kts | 43° |
| 2026-04-21 00:37 | 63.14297 | -57.96447 | 34707 ft | 506 kts | 42° |
| 2026-04-21 00:38 | 63.20093 | -57.87713 | 34719 ft | 505 kts | 42° |
| 2026-04-21 00:38 | 63.25900 | -57.78933 | 34727 ft | 504 kts | 43° |
| 2026-04-21 00:39 | 63.31717 | -57.70085 | 34732 ft | 504 kts | 43° |
| 2026-04-21 00:39 | 63.37571 | -57.61137 | 34733 ft | 504 kts | 42° |
| 2026-04-21 00:40 | 63.43409 | -57.52238 | 34732 ft | 504 kts | 42° |
| 2026-04-21 00:40 | 63.50183 | -57.41893 | 34735 ft | 504 kts | 41° |
| 2026-04-21 00:41 | 63.54983 | -57.34518 | 34741 ft | 504 kts | 43° |
| 2026-04-21 00:41 | 63.60720 | -57.25649 | 34748 ft | 503 kts | 43° |
| 2026-04-21 00:42 | 63.66473 | -57.16719 | 34751 ft | 505 kts | 43° |
| 2026-04-21 00:42 | 63.72181 | -57.07818 | 34750 ft | 503 kts | 43° |
| 2026-04-21 00:43 | 63.77908 | -56.98838 | 34757 ft | 504 kts | 43° |
| 2026-04-21 00:43 | 63.83662 | -56.89753 | 34758 ft | 504 kts | 43° |
| 2026-04-21 00:44 | 63.89436 | -56.80592 | 34765 ft | 503 kts | 43° |
| 2026-04-21 00:44 | 63.95134 | -56.71515 | 34775 ft | 505 kts | 42° |
| 2026-04-21 00:45 | 64.03694 | -56.57797 | 34783 ft | 501 kts | 42° |
| 2026-04-21 00:45 | 64.09390 | -56.48620 | 34792 ft | 501 kts | 42° |
| 2026-04-21 00:46 | 64.15095 | -56.39372 | 34799 ft | 505 kts | 42° |
| 2026-04-21 00:46 | 64.20773 | -56.30135 | 34798 ft | 500 kts | 43° |
| 2026-04-21 00:47 | 64.26485 | -56.20790 | 34802 ft | 500 kts | 43° |
| 2026-04-21 00:47 | 64.32142 | -56.11471 | 34819 ft | 503 kts | 43° |
| 2026-04-21 00:48 | 64.37810 | -56.02089 | 34812 ft | 502 kts | 43° |
| 2026-04-21 00:48 | 64.43471 | -55.92675 | 34824 ft | 501 kts | 43° |
| 2026-04-21 00:49 | 64.49133 | -55.83212 | 34832 ft | 501 kts | 43° |
| 2026-04-21 00:49 | 64.54895 | -55.73522 | 34841 ft | 503 kts | 42° |
| 2026-04-21 00:50 | 64.60548 | -55.63980 | 34852 ft | 501 kts | 42° |
| 2026-04-21 00:50 | 64.66176 | -55.54419 | 34859 ft | 501 kts | 42° |
| 2026-04-21 00:51 | 64.71810 | -55.44812 | 34864 ft | 500 kts | 43° |
| 2026-04-21 00:51 | 64.77396 | -55.35137 | 34872 ft | 501 kts | 43° |
| 2026-04-21 00:52 | 64.82908 | -55.25424 | 34882 ft | 500 kts | 44° |
| 2026-04-21 00:52 | 64.88418 | -55.15646 | 34886 ft | 497 kts | 44° |
| 2026-04-21 00:53 | 64.93932 | -55.05808 | 34898 ft | 500 kts | 43° |
| 2026-04-21 00:53 | 64.99443 | -54.95958 | 34906 ft | 495 kts | 44° |
| 2026-04-21 00:54 | 65.04920 | -54.86125 | 34917 ft | 499 kts | 44° |
| 2026-04-21 00:54 | 65.10419 | -54.76199 | 34913 ft | 498 kts | 43° |
| 2026-04-21 00:55 | 65.15847 | -54.66355 | 34928 ft | 494 kts | 44° |
| 2026-04-21 00:55 | 65.21305 | -54.56391 | 34930 ft | 497 kts | 43° |
| 2026-04-21 00:56 | 65.26724 | -54.46445 | 34939 ft | 495 kts | 43° |
| 2026-04-21 00:56 | 65.32157 | -54.36424 | 34945 ft | 495 kts | 43° |
| 2026-04-21 00:57 | 65.37608 | -54.26328 | 34958 ft | 493 kts | 44° |
| 2026-04-21 00:57 | 65.43014 | -54.16258 | 34967 ft | 492 kts | 44° |
| 2026-04-21 00:58 | 65.45675 | -54.11279 | 34768 ft | 494 kts | 44° |
| 2026-04-21 00:58 | 65.48412 | -54.06138 | 34155 ft | 494 kts | 44° |
| 2026-04-21 00:58 | 65.51102 | -54.01073 | 33512 ft | 494 kts | 44° |
| 2026-04-21 00:58 | 65.53777 | -53.96028 | 32875 ft | 494 kts | 44° |
| 2026-04-21 00:59 | 65.56471 | -53.90935 | 32230 ft | 494 kts | 43° |
| 2026-04-21 00:59 | 65.59152 | -53.85857 | 31594 ft | 494 kts | 43° |
| 2026-04-21 00:59 | 65.61829 | -53.80770 | 30946 ft | 493 kts | 42° |
| 2026-04-21 00:59 | 65.64510 | -53.75669 | 30303 ft | 493 kts | 43° |
| 2026-04-21 01:00 | 65.67204 | -53.70523 | 29655 ft | 492 kts | 42° |
| 2026-04-21 01:00 | 65.69861 | -53.65434 | 29010 ft | 492 kts | 42° |
| 2026-04-21 01:00 | 65.72534 | -53.60303 | 28365 ft | 490 kts | 43° |
| 2026-04-21 01:00 | 65.75172 | -53.55227 | 27728 ft | 489 kts | 43° |
| 2026-04-21 01:01 | 65.77801 | -53.50162 | 27086 ft | 487 kts | 43° |
| 2026-04-21 01:01 | 65.80460 | -53.45026 | 26437 ft | 485 kts | 43° |
| 2026-04-21 01:01 | 65.83085 | -53.39937 | 25795 ft | 484 kts | 43° |
| 2026-04-21 01:01 | 65.85681 | -53.34897 | 25159 ft | 482 kts | 44° |
| 2026-04-21 01:02 | 65.88282 | -53.29822 | 24535 ft | 479 kts | 44° |
| 2026-04-21 01:02 | 65.90882 | -53.24729 | 23944 ft | 477 kts | 44° |
| 2026-04-21 01:02 | 65.93466 | -53.19649 | 23346 ft | 474 kts | 44° |
| 2026-04-21 01:02 | 65.96016 | -53.14622 | 22821 ft | 471 kts | 45° |
| 2026-04-21 01:03 | 65.98576 | -53.09574 | 22334 ft | 465 kts | 45° |
| 2026-04-21 01:03 | 66.01085 | -53.04615 | 21858 ft | 460 kts | 44° |
| 2026-04-21 01:03 | 66.03552 | -52.99722 | 21362 ft | 456 kts | 44° |
| 2026-04-21 01:03 | 66.05959 | -52.94676 | 20802 ft | 452 kts | 47° |
| 2026-04-21 01:04 | 66.08249 | -52.89498 | 20292 ft | 448 kts | 49° |
| 2026-04-21 01:04 | 66.10484 | -52.84242 | 19791 ft | 443 kts | 50° |
| 2026-04-21 01:04 | 66.12679 | -52.79004 | 19292 ft | 438 kts | 50° |
| 2026-04-21 01:04 | 66.14836 | -52.73839 | 18836 ft | 432 kts | 50° |
| 2026-04-21 01:05 | 66.16973 | -52.68724 | 18390 ft | 425 kts | 50° |
| 2026-04-21 01:05 | 66.19088 | -52.63671 | 17931 ft | 420 kts | 50° |
| 2026-04-21 01:05 | 66.21169 | -52.58697 | 17448 ft | 416 kts | 50° |
| 2026-04-21 01:05 | 66.23216 | -52.53808 | 16965 ft | 412 kts | 50° |
| 2026-04-21 01:06 | 66.25275 | -52.48914 | 16483 ft | 408 kts | 50° |
| 2026-04-21 01:06 | 66.27304 | -52.44114 | 16020 ft | 403 kts | 50° |
| 2026-04-21 01:06 | 66.29297 | -52.39394 | 15584 ft | 399 kts | 49° |
| 2026-04-21 01:06 | 66.31289 | -52.34663 | 15130 ft | 394 kts | 50° |
| 2026-04-21 01:07 | 66.33269 | -52.29947 | 14702 ft | 389 kts | 51° |
| 2026-04-21 01:07 | 66.35181 | -52.25381 | 14281 ft | 385 kts | 51° |
| 2026-04-21 01:07 | 66.37118 | -52.20739 | 13872 ft | 380 kts | 50° |
| 2026-04-21 01:07 | 66.38997 | -52.16226 | 13458 ft | 376 kts | 51° |
| 2026-04-21 01:08 | 66.40899 | -52.11652 | 13047 ft | 372 kts | 51° |
| 2026-04-21 01:08 | 66.42761 | -52.07163 | 12651 ft | 367 kts | 51° |
| 2026-04-21 01:08 | 66.44567 | -52.02800 | 12275 ft | 363 kts | 51° |
| 2026-04-21 01:08 | 66.46369 | -51.98437 | 11892 ft | 359 kts | 50° |
| 2026-04-21 01:09 | 66.48180 | -51.94048 | 11492 ft | 356 kts | 51° |
| 2026-04-21 01:09 | 66.49944 | -51.89753 | 11112 ft | 353 kts | 51° |
| 2026-04-21 01:09 | 66.51712 | -51.85436 | 10701 ft | 350 kts | 51° |
| 2026-04-21 01:09 | 66.53463 | -51.81163 | 10320 ft | 347 kts | 50° |
| 2026-04-21 01:10 | 66.55184 | -51.76956 | 10010 ft | 340 kts | 51° |
| 2026-04-21 01:10 | 66.56850 | -51.72904 | 10001 ft | 327 kts | 51° |
| 2026-04-21 01:10 | 66.59002 | -51.67633 | 10011 ft | 323 kts | 51° |
| 2026-04-21 01:10 | 66.60075 | -51.64982 | 9936 ft | 327 kts | 51° |
| 2026-04-21 01:11 | 66.61703 | -51.60938 | 9624 ft | 331 kts | 51° |
| 2026-04-21 01:11 | 66.63308 | -51.56977 | 9510 ft | 320 kts | 50° |
| 2026-04-21 01:11 | 66.64896 | -51.53067 | 9287 ft | 313 kts | 51° |
| 2026-04-21 01:11 | 66.66432 | -51.49258 | 8984 ft | 311 kts | 50° |
| 2026-04-21 01:12 | 66.67966 | -51.45448 | 8655 ft | 308 kts | 50° |
| 2026-04-21 01:12 | 66.69485 | -51.41679 | 8223 ft | 309 kts | 50° |
| 2026-04-21 01:12 | 66.71011 | -51.37875 | 7700 ft | 313 kts | 49° |
| 2026-04-21 01:12 | 66.72564 | -51.33996 | 7152 ft | 317 kts | 49° |
| 2026-04-21 01:13 | 66.74129 | -51.30076 | 6596 ft | 319 kts | 49° |
| 2026-04-21 01:13 | 66.75651 | -51.26255 | 6035 ft | 315 kts | 49° |
| 2026-04-21 01:13 | 66.77181 | -51.22434 | 5490 ft | 305 kts | 49° |
| 2026-04-21 01:13 | 66.78693 | -51.18826 | 5152 ft | 290 kts | 43° |
| 2026-04-21 01:14 | 66.80313 | -51.16098 | 5153 ft | 269 kts | 25° |
| 2026-04-21 01:14 | 66.82094 | -51.15350 | 5148 ft | 250 kts | 352° |
| 2026-04-21 01:14 | 66.83737 | -51.16539 | 5150 ft | 244 kts | 331° |
| 2026-04-21 01:14 | 66.85233 | -51.18538 | 4749 ft | 249 kts | 328° |
| 2026-04-21 01:15 | 66.86750 | -51.20637 | 4351 ft | 247 kts | 333° |
| 2026-04-21 01:15 | 66.88360 | -51.21963 | 4074 ft | 240 kts | 358° |
| 2026-04-21 01:15 | 66.89906 | -51.21180 | 3920 ft | 224 kts | 33° |
| 2026-04-21 01:15 | 66.91032 | -51.18735 | 3708 ft | 206 kts | 58° |
| 2026-04-21 01:16 | 66.91796 | -51.15768 | 3489 ft | 194 kts | 66° |
| 2026-04-21 01:16 | 66.92420 | -51.12827 | 3337 ft | 185 kts | 68° |
| 2026-04-21 01:16 | 66.93002 | -51.10066 | 3152 ft | 173 kts | 67° |
| 2026-04-21 01:16 | 66.93570 | -51.07431 | 3000 ft | 172 kts | 67° |
| 2026-04-21 01:17 | 66.94146 | -51.04761 | 2843 ft | 171 kts | 68° |
| 2026-04-21 01:17 | 66.94708 | -51.02147 | 2689 ft | 164 kts | 67° |
| 2026-04-21 01:17 | 66.95245 | -50.99647 | 2548 ft | 157 kts | 68° |
| 2026-04-21 01:17 | 66.95757 | -50.97226 | 2432 ft | 157 kts | 68° |
| 2026-04-21 01:18 | 66.96261 | -50.94851 | 2096 ft | 150 kts | 67° |
| 2026-04-21 01:18 | 66.96744 | -50.92582 | 1864 ft | 142 kts | 66° |
| 2026-04-21 01:18 | 66.97208 | -50.90404 | 1660 ft | 137 kts | 65° |
| 2026-04-21 01:18 | 66.97659 | -50.88305 | 1443 ft | 135 kts | 65° |
| 2026-04-21 01:19 | 66.98103 | -50.86213 | 1261 ft | 135 kts | 65° |
| 2026-04-21 01:19 | 66.98547 | -50.84132 | 1133 ft | 132 kts | 64° |
| 2026-04-21 01:19 | 66.98953 | -50.82001 | 1009 ft | 133 kts | 68° |
| 2026-04-21 01:19 | 66.99338 | -50.79895 | 765 ft | 128 kts | 63° |
| 2026-04-21 01:20 | 66.99770 | -50.77940 | 583 ft | 128 kts | 61° |
| 2026-04-21 01:20 | 67.00211 | -50.75917 | 450 ft | 134 kts | 61° |
| 2026-04-21 01:20 | 67.00676 | -50.73768 | 263 ft | 140 kts | 61° |
| 2026-04-21 01:20 | 67.01115 | -50.71694 | 185 ft | 112 kts | 62° |
| 2026-04-21 01:21 | 67.01405 | -50.70316 | 220 ft | 63 kts | 61° |
| 2026-04-21 01:21 | 67.01601 | -50.69479 | 236 ft | 45 kts | 59° |
| 2026-04-21 01:21 | 67.01723 | -50.68912 | 222 ft | 21 kts | 65° |
| 2026-04-21 01:21 | 67.01675 | -50.68935 | 224 ft | 12 kts | 249° |
| 2026-04-21 01:22 | 67.01604 | -50.69111 | 229 ft | 5 kts | 195° |
| 2026-04-21 01:22 | 67.01491 | -50.69143 | 227 ft | 25 kts | 188° |
| 2026-04-21 01:22 | 67.01340 | -50.69344 | 226 ft | 22 kts | 219° |
| 2026-04-21 01:22 | 67.01265 | -50.69624 | 225 ft | 28 kts | 242° |
| 2026-04-21 01:23 | 67.01157 | -50.70147 | 213 ft | 28 kts | 242° |
| 2026-04-21 01:23 | 67.01059 | -50.70586 | 199 ft | 27 kts | 240° |
| 2026-04-21 01:23 | 67.00965 | -50.70873 | 190 ft | 15 kts | 123° |
| 2026-04-21 01:23 | 67.00956 | -50.70715 | 192 ft | 0 kts | 94° |
| 2026-04-21 01:24 | 67.00956 | -50.70716 | 192 ft | 0 kts | 94° |